sensor_id;sensor_type;location;lat;lon;timestamp;P1;durP1;ratioP1;P2;durP2;ratioP2
9124;SDS011;4597;48.730;9.114;2024-03-08T00:01:49;13.87;;;8.80;;
9124;SDS011;4597;48.730;9.114;2024-03-08T00:04:14;12.60;;;7.70;;
9124;SDS011;4597;48.730;9.114;2024-03-08T00:06:40;11.40;;;7.40;;
9124;SDS011;4597;48.730;9.114;2024-03-08T00:09:06;13.23;;;7.93;;
9124;SDS011;4597;48.730;9.114;2024-03-08T00:11:33;11.80;;;7.63;;
9124;SDS011;4597;48.730;9.114;2024-03-08T00:13:59;13.90;;;8.03;;
9124;SDS011;4597;48.730;9.114;2024-03-08T00:16:25;11.43;;;8.77;;
9124;SDS011;4597;48.730;9.114;2024-03-08T00:18:50;10.97;;;8.17;;
9124;SDS011;4597;48.730;9.114;2024-03-08T00:21:16;9.67;;;6.33;;
9124;SDS011;4597;48.730;9.114;2024-03-08T00:23:41;12.67;;;7.53;;
9124;SDS011;4597;48.730;9.114;2024-03-08T00:26:07;10.70;;;7.43;;
9124;SDS011;4597;48.730;9.114;2024-03-08T00:28:32;12.13;;;7.73;;
9124;SDS011;4597;48.730;9.114;2024-03-08T00:30:59;13.87;;;8.40;;
9124;SDS011;4597;48.730;9.114;2024-03-08T00:33:25;12.43;;;7.23;;
9124;SDS011;4597;48.730;9.114;2024-03-08T00:35:50;11.70;;;7.57;;
9124;SDS011;4597;48.730;9.114;2024-03-08T00:38:16;16.57;;;8.77;;
9124;SDS011;4597;48.730;9.114;2024-03-08T00:40:43;12.30;;;9.07;;
9124;SDS011;4597;48.730;9.114;2024-03-08T00:43:09;16.50;;;8.70;;
9124;SDS011;4597;48.730;9.114;2024-03-08T00:45:34;12.00;;;7.47;;
9124;SDS011;4597;48.730;9.114;2024-03-08T00:48:01;11.53;;;7.10;;
9124;SDS011;4597;48.730;9.114;2024-03-08T00:50:28;10.73;;;7.13;;
9124;SDS011;4597;48.730;9.114;2024-03-08T00:52:53;14.40;;;8.20;;
9124;SDS011;4597;48.730;9.114;2024-03-08T00:55:19;9.63;;;7.80;;
9124;SDS011;4597;48.730;9.114;2024-03-08T00:57:45;10.13;;;7.47;;
9124;SDS011;4597;48.730;9.114;2024-03-08T01:00:10;12.77;;;8.17;;
9124;SDS011;4597;48.730;9.114;2024-03-08T01:02:37;13.03;;;8.47;;
9124;SDS011;4597;48.730;9.114;2024-03-08T01:05:04;12.97;;;7.70;;
9124;SDS011;4597;48.730;9.114;2024-03-08T01:07:32;9.70;;;7.03;;
9124;SDS011;4597;48.730;9.114;2024-03-08T01:09:59;12.50;;;7.73;;
9124;SDS011;4597;48.730;9.114;2024-03-08T01:12:25;12.13;;;7.43;;
9124;SDS011;4597;48.730;9.114;2024-03-08T01:14:51;10.80;;;6.93;;
9124;SDS011;4597;48.730;9.114;2024-03-08T01:17:16;14.10;;;8.20;;
9124;SDS011;4597;48.730;9.114;2024-03-08T01:19:42;10.53;;;7.50;;
9124;SDS011;4597;48.730;9.114;2024-03-08T01:22:09;10.30;;;7.13;;
9124;SDS011;4597;48.730;9.114;2024-03-08T01:24:35;12.63;;;7.70;;
9124;SDS011;4597;48.730;9.114;2024-03-08T01:27:01;14.53;;;7.80;;
9124;SDS011;4597;48.730;9.114;2024-03-08T01:29:27;12.60;;;7.97;;
9124;SDS011;4597;48.730;9.114;2024-03-08T01:31:54;11.33;;;7.27;;
9124;SDS011;4597;48.730;9.114;2024-03-08T01:34:21;12.30;;;7.37;;
9124;SDS011;4597;48.730;9.114;2024-03-08T01:36:47;12.33;;;7.57;;
9124;SDS011;4597;48.730;9.114;2024-03-08T01:39:13;12.97;;;7.83;;
9124;SDS011;4597;48.730;9.114;2024-03-08T01:41:39;11.30;;;7.53;;
9124;SDS011;4597;48.730;9.114;2024-03-08T01:44:05;11.27;;;7.73;;
9124;SDS011;4597;48.730;9.114;2024-03-08T01:46:32;12.37;;;7.80;;
9124;SDS011;4597;48.730;9.114;2024-03-08T01:48:59;11.17;;;7.67;;
9124;SDS011;4597;48.730;9.114;2024-03-08T01:51:26;13.80;;;7.50;;
9124;SDS011;4597;48.730;9.114;2024-03-08T01:53:53;10.87;;;7.10;;
9124;SDS011;4597;48.730;9.114;2024-03-08T01:56:20;13.80;;;7.37;;
9124;SDS011;4597;48.730;9.114;2024-03-08T01:58:46;11.30;;;7.37;;
9124;SDS011;4597;48.730;9.114;2024-03-08T02:01:12;11.43;;;7.23;;
9124;SDS011;4597;48.730;9.114;2024-03-08T02:03:40;12.47;;;7.20;;
9124;SDS011;4597;48.730;9.114;2024-03-08T02:06:08;11.77;;;7.43;;
9124;SDS011;4597;48.730;9.114;2024-03-08T02:08:36;12.50;;;7.50;;
9124;SDS011;4597;48.730;9.114;2024-03-08T02:11:07;11.80;;;7.10;;
9124;SDS011;4597;48.730;9.114;2024-03-08T02:13:33;12.87;;;7.57;;
9124;SDS011;4597;48.730;9.114;2024-03-08T02:15:59;9.50;;;7.10;;
9124;SDS011;4597;48.730;9.114;2024-03-08T02:18:26;11.20;;;7.10;;
9124;SDS011;4597;48.730;9.114;2024-03-08T02:20:54;15.03;;;7.10;;
9124;SDS011;4597;48.730;9.114;2024-03-08T02:23:24;11.93;;;7.40;;
9124;SDS011;4597;48.730;9.114;2024-03-08T02:25:50;11.23;;;7.77;;
9124;SDS011;4597;48.730;9.114;2024-03-08T02:28:16;11.20;;;7.77;;
9124;SDS011;4597;48.730;9.114;2024-03-08T02:30:44;9.53;;;6.67;;
9124;SDS011;4597;48.730;9.114;2024-03-08T02:33:13;8.90;;;6.70;;
9124;SDS011;4597;48.730;9.114;2024-03-08T02:35:41;11.37;;;7.50;;
9124;SDS011;4597;48.730;9.114;2024-03-08T02:38:10;11.33;;;6.43;;
9124;SDS011;4597;48.730;9.114;2024-03-08T02:40:43;9.97;;;6.70;;
9124;SDS011;4597;48.730;9.114;2024-03-08T02:43:13;13.83;;;8.10;;
9124;SDS011;4597;48.730;9.114;2024-03-08T02:45:40;12.80;;;7.67;;
9124;SDS011;4597;48.730;9.114;2024-03-08T02:48:07;14.20;;;7.13;;
9124;SDS011;4597;48.730;9.114;2024-03-08T02:50:33;12.53;;;7.30;;
9124;SDS011;4597;48.730;9.114;2024-03-08T02:52:59;12.17;;;7.80;;
9124;SDS011;4597;48.730;9.114;2024-03-08T02:55:25;11.33;;;7.53;;
9124;SDS011;4597;48.730;9.114;2024-03-08T02:57:51;12.80;;;7.57;;
9124;SDS011;4597;48.730;9.114;2024-03-08T03:00:19;10.27;;;6.83;;
9124;SDS011;4597;48.730;9.114;2024-03-08T03:02:46;11.77;;;7.47;;
9124;SDS011;4597;48.730;9.114;2024-03-08T03:05:12;10.17;;;6.97;;
9124;SDS011;4597;48.730;9.114;2024-03-08T03:07:37;10.87;;;7.53;;
9124;SDS011;4597;48.730;9.114;2024-03-08T03:10:03;11.87;;;6.73;;
9124;SDS011;4597;48.730;9.114;2024-03-08T03:12:29;10.07;;;6.57;;
9124;SDS011;4597;48.730;9.114;2024-03-08T03:14:56;12.70;;;7.57;;
9124;SDS011;4597;48.730;9.114;2024-03-08T03:17:25;13.50;;;7.97;;
9124;SDS011;4597;48.730;9.114;2024-03-08T03:19:51;12.80;;;7.47;;
9124;SDS011;4597;48.730;9.114;2024-03-08T03:22:17;12.80;;;8.13;;
9124;SDS011;4597;48.730;9.114;2024-03-08T03:24:44;13.30;;;6.90;;
9124;SDS011;4597;48.730;9.114;2024-03-08T03:27:11;9.60;;;6.17;;
9124;SDS011;4597;48.730;9.114;2024-03-08T03:29:40;11.57;;;6.93;;
9124;SDS011;4597;48.730;9.114;2024-03-08T03:32:11;10.23;;;6.80;;
9124;SDS011;4597;48.730;9.114;2024-03-08T03:34:37;11.10;;;6.87;;
9124;SDS011;4597;48.730;9.114;2024-03-08T03:37:03;9.23;;;6.73;;
9124;SDS011;4597;48.730;9.114;2024-03-08T03:39:29;10.93;;;7.37;;
9124;SDS011;4597;48.730;9.114;2024-03-08T03:41:59;11.10;;;6.50;;
9124;SDS011;4597;48.730;9.114;2024-03-08T03:44:28;9.03;;;6.23;;
9124;SDS011;4597;48.730;9.114;2024-03-08T03:46:54;12.37;;;7.73;;
9124;SDS011;4597;48.730;9.114;2024-03-08T03:49:19;10.53;;;6.47;;
9124;SDS011;4597;48.730;9.114;2024-03-08T03:51:45;10.47;;;6.97;;
9124;SDS011;4597;48.730;9.114;2024-03-08T03:54:11;11.00;;;6.93;;
9124;SDS011;4597;48.730;9.114;2024-03-08T03:56:37;11.00;;;7.07;;
9124;SDS011;4597;48.730;9.114;2024-03-08T03:59:04;11.83;;;7.10;;
9124;SDS011;4597;48.730;9.114;2024-03-08T04:01:31;11.10;;;6.73;;
9124;SDS011;4597;48.730;9.114;2024-03-08T04:03:57;9.90;;;6.47;;
9124;SDS011;4597;48.730;9.114;2024-03-08T04:06:23;9.93;;;6.37;;
9124;SDS011;4597;48.730;9.114;2024-03-08T04:08:48;12.03;;;7.07;;
9124;SDS011;4597;48.730;9.114;2024-03-08T04:11:14;10.67;;;6.83;;
9124;SDS011;4597;48.730;9.114;2024-03-08T04:13:42;10.43;;;6.80;;
9124;SDS011;4597;48.730;9.114;2024-03-08T04:16:07;10.77;;;6.63;;
9124;SDS011;4597;48.730;9.114;2024-03-08T04:18:34;11.10;;;6.30;;
9124;SDS011;4597;48.730;9.114;2024-03-08T04:21:03;11.87;;;6.83;;
9124;SDS011;4597;48.730;9.114;2024-03-08T04:23:32;12.40;;;6.90;;
9124;SDS011;4597;48.730;9.114;2024-03-08T04:26:00;10.97;;;6.67;;
9124;SDS011;4597;48.730;9.114;2024-03-08T04:28:26;10.10;;;6.50;;
9124;SDS011;4597;48.730;9.114;2024-03-08T04:30:52;12.60;;;6.27;;
9124;SDS011;4597;48.730;9.114;2024-03-08T04:33:17;10.07;;;6.20;;
9124;SDS011;4597;48.730;9.114;2024-03-08T04:35:43;13.00;;;7.17;;
9124;SDS011;4597;48.730;9.114;2024-03-08T04:38:10;8.97;;;6.67;;
9124;SDS011;4597;48.730;9.114;2024-03-08T04:40:36;10.47;;;6.53;;
9124;SDS011;4597;48.730;9.114;2024-03-08T04:43:01;15.40;;;7.00;;
9124;SDS011;4597;48.730;9.114;2024-03-08T04:45:27;11.53;;;6.73;;
9124;SDS011;4597;48.730;9.114;2024-03-08T04:47:53;11.80;;;6.83;;
9124;SDS011;4597;48.730;9.114;2024-03-08T04:50:18;12.63;;;7.77;;
9124;SDS011;4597;48.730;9.114;2024-03-08T04:52:44;11.67;;;7.13;;
9124;SDS011;4597;48.730;9.114;2024-03-08T04:55:09;10.80;;;6.50;;
9124;SDS011;4597;48.730;9.114;2024-03-08T04:57:35;10.13;;;6.30;;
9124;SDS011;4597;48.730;9.114;2024-03-08T05:00:02;12.03;;;6.57;;
9124;SDS011;4597;48.730;9.114;2024-03-08T05:02:32;12.33;;;7.27;;
9124;SDS011;4597;48.730;9.114;2024-03-08T05:04:58;11.20;;;6.63;;
9124;SDS011;4597;48.730;9.114;2024-03-08T05:07:23;10.07;;;6.50;;
9124;SDS011;4597;48.730;9.114;2024-03-08T05:09:49;10.83;;;7.37;;
9124;SDS011;4597;48.730;9.114;2024-03-08T05:12:17;11.07;;;6.43;;
9124;SDS011;4597;48.730;9.114;2024-03-08T05:14:44;10.23;;;6.27;;
9124;SDS011;4597;48.730;9.114;2024-03-08T05:17:16;9.67;;;6.40;;
9124;SDS011;4597;48.730;9.114;2024-03-08T05:19:44;11.03;;;6.73;;
9124;SDS011;4597;48.730;9.114;2024-03-08T05:22:10;11.50;;;6.90;;
9124;SDS011;4597;48.730;9.114;2024-03-08T05:24:35;11.53;;;7.10;;
9124;SDS011;4597;48.730;9.114;2024-03-08T05:27:01;11.10;;;6.60;;
9124;SDS011;4597;48.730;9.114;2024-03-08T05:29:28;10.00;;;6.27;;
9124;SDS011;4597;48.730;9.114;2024-03-08T05:31:54;11.83;;;7.20;;
9124;SDS011;4597;48.730;9.114;2024-03-08T05:34:20;10.70;;;6.90;;
9124;SDS011;4597;48.730;9.114;2024-03-08T05:36:46;10.67;;;6.17;;
9124;SDS011;4597;48.730;9.114;2024-03-08T05:39:14;10.00;;;6.40;;
9124;SDS011;4597;48.730;9.114;2024-03-08T05:41:41;10.30;;;7.30;;
9124;SDS011;4597;48.730;9.114;2024-03-08T05:44:07;12.80;;;7.43;;
9124;SDS011;4597;48.730;9.114;2024-03-08T05:46:33;12.77;;;7.60;;
9124;SDS011;4597;48.730;9.114;2024-03-08T05:49:00;11.50;;;6.53;;
9124;SDS011;4597;48.730;9.114;2024-03-08T05:51:30;12.60;;;6.60;;
9124;SDS011;4597;48.730;9.114;2024-03-08T05:54:04;11.70;;;7.00;;
9124;SDS011;4597;48.730;9.114;2024-03-08T05:56:31;10.87;;;6.67;;
9124;SDS011;4597;48.730;9.114;2024-03-08T05:58:57;11.70;;;7.07;;
9124;SDS011;4597;48.730;9.114;2024-03-08T06:01:26;8.57;;;6.43;;
9124;SDS011;4597;48.730;9.114;2024-03-08T06:03:53;8.17;;;6.10;;
9124;SDS011;4597;48.730;9.114;2024-03-08T06:06:22;14.93;;;6.70;;
9124;SDS011;4597;48.730;9.114;2024-03-08T06:08:49;10.70;;;7.03;;
9124;SDS011;4597;48.730;9.114;2024-03-08T06:11:15;13.97;;;6.63;;
9124;SDS011;4597;48.730;9.114;2024-03-08T06:13:42;9.70;;;6.73;;
9124;SDS011;4597;48.730;9.114;2024-03-08T06:16:08;13.27;;;6.67;;
9124;SDS011;4597;48.730;9.114;2024-03-08T06:18:34;10.63;;;6.90;;
9124;SDS011;4597;48.730;9.114;2024-03-08T06:21:04;13.83;;;6.73;;
9124;SDS011;4597;48.730;9.114;2024-03-08T06:23:34;11.97;;;6.43;;
9124;SDS011;4597;48.730;9.114;2024-03-08T06:26:03;12.10;;;7.17;;
9124;SDS011;4597;48.730;9.114;2024-03-08T06:28:29;11.07;;;6.97;;
9124;SDS011;4597;48.730;9.114;2024-03-08T06:30:54;10.33;;;6.67;;
9124;SDS011;4597;48.730;9.114;2024-03-08T06:33:20;12.93;;;7.73;;
9124;SDS011;4597;48.730;9.114;2024-03-08T06:35:45;11.73;;;7.83;;
9124;SDS011;4597;48.730;9.114;2024-03-08T06:38:11;12.30;;;7.60;;
9124;SDS011;4597;48.730;9.114;2024-03-08T06:40:36;14.77;;;7.70;;
9124;SDS011;4597;48.730;9.114;2024-03-08T06:43:02;11.00;;;7.27;;
9124;SDS011;4597;48.730;9.114;2024-03-08T06:45:30;11.47;;;7.00;;
9124;SDS011;4597;48.730;9.114;2024-03-08T06:47:56;11.80;;;6.83;;
9124;SDS011;4597;48.730;9.114;2024-03-08T06:50:22;11.97;;;6.47;;
9124;SDS011;4597;48.730;9.114;2024-03-08T06:52:47;12.27;;;7.30;;
9124;SDS011;4597;48.730;9.114;2024-03-08T06:55:18;12.83;;;6.97;;
9124;SDS011;4597;48.730;9.114;2024-03-08T06:57:44;9.40;;;6.20;;
9124;SDS011;4597;48.730;9.114;2024-03-08T07:00:10;10.70;;;6.47;;
9124;SDS011;4597;48.730;9.114;2024-03-08T07:02:38;11.27;;;7.03;;
9124;SDS011;4597;48.730;9.114;2024-03-08T07:05:07;12.53;;;8.00;;
9124;SDS011;4597;48.730;9.114;2024-03-08T07:07:35;10.50;;;6.40;;
9124;SDS011;4597;48.730;9.114;2024-03-08T07:10:00;9.37;;;6.47;;
9124;SDS011;4597;48.730;9.114;2024-03-08T07:12:26;14.27;;;7.77;;
9124;SDS011;4597;48.730;9.114;2024-03-08T07:14:51;10.33;;;7.13;;
9124;SDS011;4597;48.730;9.114;2024-03-08T07:17:18;11.73;;;6.93;;
9124;SDS011;4597;48.730;9.114;2024-03-08T07:19:43;11.27;;;6.90;;
9124;SDS011;4597;48.730;9.114;2024-03-08T07:22:09;11.63;;;7.10;;
9124;SDS011;4597;48.730;9.114;2024-03-08T07:24:35;11.10;;;6.60;;
9124;SDS011;4597;48.730;9.114;2024-03-08T07:27:19;13.00;;;7.53;;
9124;SDS011;4597;48.730;9.114;2024-03-08T07:29:44;13.17;;;7.20;;
9124;SDS011;4597;48.730;9.114;2024-03-08T07:32:10;9.97;;;6.87;;
9124;SDS011;4597;48.730;9.114;2024-03-08T07:34:50;9.37;;;6.37;;
9124;SDS011;4597;48.730;9.114;2024-03-08T07:37:16;12.97;;;8.23;;
9124;SDS011;4597;48.730;9.114;2024-03-08T07:39:42;10.87;;;6.97;;
9124;SDS011;4597;48.730;9.114;2024-03-08T07:42:08;11.33;;;7.63;;
9124;SDS011;4597;48.730;9.114;2024-03-08T07:44:35;13.00;;;7.77;;
9124;SDS011;4597;48.730;9.114;2024-03-08T07:47:00;15.03;;;8.27;;
9124;SDS011;4597;48.730;9.114;2024-03-08T07:49:26;13.77;;;7.83;;
9124;SDS011;4597;48.730;9.114;2024-03-08T07:51:51;15.10;;;8.27;;
9124;SDS011;4597;48.730;9.114;2024-03-08T07:54:17;12.70;;;8.13;;
9124;SDS011;4597;48.730;9.114;2024-03-08T07:56:42;12.87;;;7.90;;
9124;SDS011;4597;48.730;9.114;2024-03-08T07:59:08;13.10;;;8.30;;
9124;SDS011;4597;48.730;9.114;2024-03-08T08:01:33;11.77;;;7.70;;
9124;SDS011;4597;48.730;9.114;2024-03-08T08:03:59;12.70;;;7.43;;
9124;SDS011;4597;48.730;9.114;2024-03-08T08:06:26;11.23;;;7.90;;
9124;SDS011;4597;48.730;9.114;2024-03-08T08:08:52;13.03;;;7.70;;
9124;SDS011;4597;48.730;9.114;2024-03-08T08:11:18;11.83;;;7.57;;
9124;SDS011;4597;48.730;9.114;2024-03-08T08:13:43;11.67;;;7.33;;
9124;SDS011;4597;48.730;9.114;2024-03-08T08:16:09;11.10;;;7.50;;
9124;SDS011;4597;48.730;9.114;2024-03-08T08:18:35;12.50;;;7.97;;
9124;SDS011;4597;48.730;9.114;2024-03-08T08:21:02;12.17;;;7.23;;
9124;SDS011;4597;48.730;9.114;2024-03-08T08:23:28;11.17;;;7.13;;
9124;SDS011;4597;48.730;9.114;2024-03-08T08:25:54;12.00;;;7.60;;
9124;SDS011;4597;48.730;9.114;2024-03-08T08:28:20;12.43;;;7.90;;
9124;SDS011;4597;48.730;9.114;2024-03-08T08:30:46;21.93;;;11.57;;
9124;SDS011;4597;48.730;9.114;2024-03-08T08:33:11;219.03;;;67.50;;
9124;SDS011;4597;48.730;9.114;2024-03-08T08:35:37;327.07;;;119.53;;
9124;SDS011;4597;48.730;9.114;2024-03-08T08:38:03;92.47;;;40.20;;
9124;SDS011;4597;48.730;9.114;2024-03-08T08:40:29;65.13;;;32.37;;
9124;SDS011;4597;48.730;9.114;2024-03-08T08:42:57;23.67;;;14.13;;
9124;SDS011;4597;48.730;9.114;2024-03-08T08:45:23;28.77;;;17.17;;
9124;SDS011;4597;48.730;9.114;2024-03-08T08:47:48;33.13;;;19.50;;
9124;SDS011;4597;48.730;9.114;2024-03-08T08:50:14;29.40;;;16.23;;
9124;SDS011;4597;48.730;9.114;2024-03-08T08:52:41;25.13;;;14.40;;
9124;SDS011;4597;48.730;9.114;2024-03-08T08:55:10;41.83;;;23.00;;
9124;SDS011;4597;48.730;9.114;2024-03-08T08:57:39;17.27;;;9.73;;
9124;SDS011;4597;48.730;9.114;2024-03-08T09:00:05;20.43;;;14.13;;
9124;SDS011;4597;48.730;9.114;2024-03-08T09:02:32;19.63;;;12.70;;
9124;SDS011;4597;48.730;9.114;2024-03-08T09:04:58;17.93;;;12.90;;
9124;SDS011;4597;48.730;9.114;2024-03-08T09:07:23;14.50;;;9.63;;
9124;SDS011;4597;48.730;9.114;2024-03-08T09:09:49;13.00;;;9.07;;
9124;SDS011;4597;48.730;9.114;2024-03-08T09:12:14;16.00;;;10.30;;
9124;SDS011;4597;48.730;9.114;2024-03-08T09:14:41;13.53;;;9.67;;
9124;SDS011;4597;48.730;9.114;2024-03-08T09:17:07;10.33;;;7.30;;
9124;SDS011;4597;48.730;9.114;2024-03-08T09:19:33;19.03;;;10.43;;
9124;SDS011;4597;48.730;9.114;2024-03-08T09:22:02;17.03;;;9.67;;
9124;SDS011;4597;48.730;9.114;2024-03-08T09:24:29;14.93;;;9.77;;
9124;SDS011;4597;48.730;9.114;2024-03-08T09:26:55;12.80;;;8.33;;
9124;SDS011;4597;48.730;9.114;2024-03-08T09:29:23;14.77;;;10.50;;
9124;SDS011;4597;48.730;9.114;2024-03-08T09:31:49;16.60;;;10.40;;
9124;SDS011;4597;48.730;9.114;2024-03-08T09:34:14;14.57;;;8.63;;
9124;SDS011;4597;48.730;9.114;2024-03-08T09:36:40;14.77;;;8.80;;
9124;SDS011;4597;48.730;9.114;2024-03-08T09:39:06;13.23;;;9.40;;
9124;SDS011;4597;48.730;9.114;2024-03-08T09:41:32;13.20;;;8.53;;
9124;SDS011;4597;48.730;9.114;2024-03-08T09:43:59;9.00;;;6.97;;
9124;SDS011;4597;48.730;9.114;2024-03-08T09:46:25;10.63;;;7.27;;
9124;SDS011;4597;48.730;9.114;2024-03-08T09:48:52;11.13;;;8.03;;
9124;SDS011;4597;48.730;9.114;2024-03-08T09:51:20;13.30;;;8.77;;
9124;SDS011;4597;48.730;9.114;2024-03-08T09:53:49;9.57;;;6.83;;
9124;SDS011;4597;48.730;9.114;2024-03-08T09:56:15;11.60;;;7.30;;
9124;SDS011;4597;48.730;9.114;2024-03-08T09:58:41;13.63;;;7.17;;
9124;SDS011;4597;48.730;9.114;2024-03-08T10:01:24;11.30;;;7.10;;
9124;SDS011;4597;48.730;9.114;2024-03-08T10:03:51;12.10;;;7.87;;
9124;SDS011;4597;48.730;9.114;2024-03-08T10:06:18;11.53;;;7.87;;
9124;SDS011;4597;48.730;9.114;2024-03-08T10:08:48;10.97;;;7.33;;
9124;SDS011;4597;48.730;9.114;2024-03-08T10:11:13;11.63;;;7.77;;
9124;SDS011;4597;48.730;9.114;2024-03-08T10:13:39;12.40;;;7.87;;
9124;SDS011;4597;48.730;9.114;2024-03-08T10:16:05;11.87;;;7.13;;
9124;SDS011;4597;48.730;9.114;2024-03-08T10:18:32;10.27;;;7.40;;
9124;SDS011;4597;48.730;9.114;2024-03-08T10:21:07;10.97;;;7.27;;
9124;SDS011;4597;48.730;9.114;2024-03-08T10:23:35;9.53;;;6.70;;
9124;SDS011;4597;48.730;9.114;2024-03-08T10:26:17;11.77;;;7.53;;
9124;SDS011;4597;48.730;9.114;2024-03-08T10:28:45;11.80;;;7.93;;
9124;SDS011;4597;48.730;9.114;2024-03-08T10:31:17;12.63;;;7.67;;
9124;SDS011;4597;48.730;9.114;2024-03-08T10:33:44;9.10;;;7.50;;
9124;SDS011;4597;48.730;9.114;2024-03-08T10:36:14;12.47;;;7.57;;
9124;SDS011;4597;48.730;9.114;2024-03-08T10:38:43;12.10;;;8.10;;
9124;SDS011;4597;48.730;9.114;2024-03-08T10:41:12;10.87;;;8.10;;
9124;SDS011;4597;48.730;9.114;2024-03-08T10:43:52;13.80;;;7.57;;
9124;SDS011;4597;48.730;9.114;2024-03-08T10:46:41;11.73;;;7.53;;
9124;SDS011;4597;48.730;9.114;2024-03-08T10:49:30;10.03;;;7.73;;
9124;SDS011;4597;48.730;9.114;2024-03-08T10:52:04;11.63;;;7.70;;
9124;SDS011;4597;48.730;9.114;2024-03-08T10:54:30;12.93;;;8.17;;
9124;SDS011;4597;48.730;9.114;2024-03-08T10:56:57;11.47;;;7.53;;
9124;SDS011;4597;48.730;9.114;2024-03-08T10:59:24;11.60;;;7.20;;
9124;SDS011;4597;48.730;9.114;2024-03-08T11:01:52;9.40;;;7.13;;
9124;SDS011;4597;48.730;9.114;2024-03-08T11:04:17;13.07;;;7.83;;
9124;SDS011;4597;48.730;9.114;2024-03-08T11:06:47;10.37;;;7.23;;
9124;SDS011;4597;48.730;9.114;2024-03-08T11:09:33;11.57;;;7.57;;
9124;SDS011;4597;48.730;9.114;2024-03-08T11:14:45;10.90;;;7.70;;
9124;SDS011;4597;48.730;9.114;2024-03-08T11:17:15;11.67;;;6.93;;
9124;SDS011;4597;48.730;9.114;2024-03-08T11:19:46;9.47;;;7.17;;
9124;SDS011;4597;48.730;9.114;2024-03-08T11:22:23;11.10;;;7.13;;
9124;SDS011;4597;48.730;9.114;2024-03-08T11:24:52;9.80;;;7.03;;
9124;SDS011;4597;48.730;9.114;2024-03-08T11:27:18;12.90;;;7.90;;
9124;SDS011;4597;48.730;9.114;2024-03-08T11:29:46;10.73;;;7.40;;
9124;SDS011;4597;48.730;9.114;2024-03-08T11:32:27;12.70;;;7.70;;
9124;SDS011;4597;48.730;9.114;2024-03-08T11:34:53;10.03;;;7.10;;
9124;SDS011;4597;48.730;9.114;2024-03-08T11:37:19;11.00;;;7.67;;
9124;SDS011;4597;48.730;9.114;2024-03-08T11:39:53;10.77;;;7.40;;
9124;SDS011;4597;48.730;9.114;2024-03-08T11:42:23;11.83;;;6.90;;
9124;SDS011;4597;48.730;9.114;2024-03-08T11:44:51;10.50;;;7.20;;
9124;SDS011;4597;48.730;9.114;2024-03-08T11:47:18;12.63;;;7.10;;
9124;SDS011;4597;48.730;9.114;2024-03-08T11:49:44;11.20;;;7.70;;
9124;SDS011;4597;48.730;9.114;2024-03-08T11:52:16;11.87;;;7.30;;
9124;SDS011;4597;48.730;9.114;2024-03-08T11:54:47;10.57;;;7.50;;
9124;SDS011;4597;48.730;9.114;2024-03-08T11:57:17;10.00;;;7.40;;
9124;SDS011;4597;48.730;9.114;2024-03-08T11:59:49;10.40;;;7.70;;
9124;SDS011;4597;48.730;9.114;2024-03-08T12:02:16;11.73;;;7.83;;
9124;SDS011;4597;48.730;9.114;2024-03-08T12:04:41;12.43;;;7.43;;
9124;SDS011;4597;48.730;9.114;2024-03-08T12:07:09;11.17;;;7.23;;
9124;SDS011;4597;48.730;9.114;2024-03-08T12:09:36;10.33;;;7.03;;
9124;SDS011;4597;48.730;9.114;2024-03-08T12:12:02;10.30;;;7.60;;
9124;SDS011;4597;48.730;9.114;2024-03-08T12:14:32;10.10;;;7.27;;
9124;SDS011;4597;48.730;9.114;2024-03-08T12:16:58;10.70;;;6.93;;
9124;SDS011;4597;48.730;9.114;2024-03-08T12:19:26;9.77;;;7.10;;
9124;SDS011;4597;48.730;9.114;2024-03-08T12:21:53;9.77;;;7.13;;
9124;SDS011;4597;48.730;9.114;2024-03-08T12:24:19;10.73;;;7.00;;
9124;SDS011;4597;48.730;9.114;2024-03-08T12:26:46;11.83;;;7.23;;
9124;SDS011;4597;48.730;9.114;2024-03-08T12:29:20;11.57;;;6.70;;
9124;SDS011;4597;48.730;9.114;2024-03-08T12:31:52;10.53;;;7.50;;
9124;SDS011;4597;48.730;9.114;2024-03-08T12:34:19;10.80;;;7.07;;
9124;SDS011;4597;48.730;9.114;2024-03-08T12:36:48;13.17;;;8.23;;
9124;SDS011;4597;48.730;9.114;2024-03-08T12:39:18;10.33;;;7.30;;
9124;SDS011;4597;48.730;9.114;2024-03-08T12:41:48;8.67;;;6.73;;
9124;SDS011;4597;48.730;9.114;2024-03-08T12:44:16;12.20;;;7.60;;
9124;SDS011;4597;48.730;9.114;2024-03-08T12:46:43;11.03;;;7.40;;
9124;SDS011;4597;48.730;9.114;2024-03-08T12:49:10;11.57;;;7.23;;
9124;SDS011;4597;48.730;9.114;2024-03-08T12:51:37;13.17;;;8.10;;
9124;SDS011;4597;48.730;9.114;2024-03-08T12:54:04;12.90;;;7.67;;
9124;SDS011;4597;48.730;9.114;2024-03-08T12:56:32;10.47;;;7.03;;
9124;SDS011;4597;48.730;9.114;2024-03-08T12:58:59;12.37;;;7.93;;
9124;SDS011;4597;48.730;9.114;2024-03-08T13:01:25;12.43;;;7.93;;
9124;SDS011;4597;48.730;9.114;2024-03-08T13:03:51;11.70;;;7.70;;
9124;SDS011;4597;48.730;9.114;2024-03-08T13:06:17;13.10;;;7.87;;
9124;SDS011;4597;48.730;9.114;2024-03-08T13:08:46;12.07;;;8.10;;
9124;SDS011;4597;48.730;9.114;2024-03-08T13:11:13;11.00;;;7.53;;
9124;SDS011;4597;48.730;9.114;2024-03-08T13:13:39;12.73;;;8.13;;
9124;SDS011;4597;48.730;9.114;2024-03-08T13:16:05;12.07;;;7.57;;
9124;SDS011;4597;48.730;9.114;2024-03-08T13:18:33;12.63;;;7.93;;
9124;SDS011;4597;48.730;9.114;2024-03-08T13:21:02;11.43;;;7.73;;
9124;SDS011;4597;48.730;9.114;2024-03-08T13:23:35;12.93;;;8.30;;
9124;SDS011;4597;48.730;9.114;2024-03-08T13:26:04;12.97;;;8.00;;
9124;SDS011;4597;48.730;9.114;2024-03-08T13:28:34;12.30;;;8.27;;
9124;SDS011;4597;48.730;9.114;2024-03-08T13:31:06;11.97;;;8.40;;
9124;SDS011;4597;48.730;9.114;2024-03-08T13:33:34;13.70;;;8.30;;
9124;SDS011;4597;48.730;9.114;2024-03-08T13:36:01;12.70;;;8.53;;
9124;SDS011;4597;48.730;9.114;2024-03-08T13:38:29;13.40;;;8.20;;
9124;SDS011;4597;48.730;9.114;2024-03-08T13:40:57;12.47;;;8.27;;
9124;SDS011;4597;48.730;9.114;2024-03-08T13:43:22;12.93;;;8.17;;
9124;SDS011;4597;48.730;9.114;2024-03-08T13:45:48;12.83;;;7.90;;
9124;SDS011;4597;48.730;9.114;2024-03-08T13:48:14;9.67;;;7.33;;
9124;SDS011;4597;48.730;9.114;2024-03-08T13:50:41;11.70;;;8.07;;
9124;SDS011;4597;48.730;9.114;2024-03-08T13:53:06;12.43;;;8.20;;
9124;SDS011;4597;48.730;9.114;2024-03-08T13:55:35;11.37;;;7.70;;
9124;SDS011;4597;48.730;9.114;2024-03-08T13:58:00;10.67;;;7.20;;
9124;SDS011;4597;48.730;9.114;2024-03-08T14:00:26;14.00;;;8.07;;
9124;SDS011;4597;48.730;9.114;2024-03-08T14:02:57;11.30;;;8.17;;
9124;SDS011;4597;48.730;9.114;2024-03-08T14:05:23;11.77;;;8.63;;
9124;SDS011;4597;48.730;9.114;2024-03-08T14:07:49;11.40;;;8.00;;
9124;SDS011;4597;48.730;9.114;2024-03-08T14:10:15;12.77;;;8.37;;
9124;SDS011;4597;48.730;9.114;2024-03-08T14:12:40;10.77;;;7.57;;
9124;SDS011;4597;48.730;9.114;2024-03-08T14:15:09;11.03;;;7.77;;
9124;SDS011;4597;48.730;9.114;2024-03-08T14:17:36;11.63;;;7.73;;
9124;SDS011;4597;48.730;9.114;2024-03-08T14:20:02;10.57;;;7.93;;
9124;SDS011;4597;48.730;9.114;2024-03-08T14:22:28;11.13;;;7.87;;
9124;SDS011;4597;48.730;9.114;2024-03-08T14:24:56;11.43;;;7.90;;
9124;SDS011;4597;48.730;9.114;2024-03-08T14:27:21;12.50;;;8.07;;
9124;SDS011;4597;48.730;9.114;2024-03-08T14:29:47;11.10;;;8.10;;
9124;SDS011;4597;48.730;9.114;2024-03-08T14:32:13;10.40;;;7.57;;
9124;SDS011;4597;48.730;9.114;2024-03-08T14:34:39;9.53;;;7.57;;
9124;SDS011;4597;48.730;9.114;2024-03-08T14:37:04;10.03;;;7.33;;
9124;SDS011;4597;48.730;9.114;2024-03-08T14:39:33;10.67;;;7.73;;
9124;SDS011;4597;48.730;9.114;2024-03-08T14:41:59;12.87;;;8.50;;
9124;SDS011;4597;48.730;9.114;2024-03-08T14:44:25;11.83;;;7.67;;
9124;SDS011;4597;48.730;9.114;2024-03-08T14:46:52;9.27;;;7.53;;
9124;SDS011;4597;48.730;9.114;2024-03-08T14:49:17;9.83;;;7.73;;
9124;SDS011;4597;48.730;9.114;2024-03-08T14:51:44;10.73;;;7.50;;
9124;SDS011;4597;48.730;9.114;2024-03-08T14:54:10;10.43;;;7.37;;
9124;SDS011;4597;48.730;9.114;2024-03-08T14:56:36;9.27;;;7.00;;
9124;SDS011;4597;48.730;9.114;2024-03-08T14:59:02;11.27;;;7.90;;
9124;SDS011;4597;48.730;9.114;2024-03-08T15:01:29;9.97;;;7.30;;
9124;SDS011;4597;48.730;9.114;2024-03-08T15:03:57;10.60;;;7.50;;
9124;SDS011;4597;48.730;9.114;2024-03-08T15:06:28;10.37;;;7.90;;